67WI weather

Accurate Airport
Necedah, Wisconsin, United States

Public forecast

Using degrees Fahrenheit for public forecast. Weather courtesy of forecast.io.

Closest aviation weather report (METAR) to Accurate Airport

Closest report is Mauston New Lisbon Union Airport, 10.0 nm (18.5 km) SW. Retrieved 2019/10/19 18:35 UTC (19 minutes ago):

K82C 191835Z AUTO 00000KT 4SM -RA BKN026 BKN036 OVC049 12/10 A2972 RMK AO2 T01220095

Closest aviation forecast (TAF) to Accurate Airport

Forecast is more than 12 hours old.

Closest forecast is Volk Field, 11.2 nm (20.8 km) W. Retrieved 2019/10/18 17:13 UTC (1 day ago):

TAF KVOK 181700Z 1817/1923 15012G18KT 9999 FEW250 QNH2977INS TEMPO 1817/1822 15015G25KT BECMG 1822/1823 17010KT 9999 FEW100 WS020/19045KT QNH2973INS BECMG 1908/1909 18009KT 9000 -SHRA BKN020 OVC040 QNH2974INS BECMG 1913/1914 20009KT 6000 -SHRA BKN010 OVC020 QNH2975INS BECMG 1918/1919 22006KT 9999 NSW BKN020 OVC040 QNH2976INS TX15/1821Z TN07/1912Z LAST NO AMDS AFT 1821 NEXT 2109